Templeton, Pennsylvania
Current Conditions -  °F | °C
As of 7:15 PM on Saturday 25 Oct 2014 (Local Time) from KBTP Reporting Station
Broken Clouds Broken Clouds  
Wind Chill: 61°   Ceiling: 5000
Heat Index: 61°   Visibility: 10mi
Dew Point: 50°   Wind: 8mph
Humidity: 68%   Direction: 220°SW
Pressure: 29.75"   Gusts: NA
Location:  40.92°N, 79.46°W
Report Text: KBTP 252315Z AUTO 22007KT 10SM FEW044 BKN050 16/10 A2975 RMK AO1
Loading
Personal Weather Stations






























Interactive Weather Map
Tropical Storm Tracking
New forecast layout! Learn more

10-Day Weather Forecast

Advertisements
Track Severe Weather on mobile